createdAt,value
2019-01-28T00:00:41.345Z,9.80
2019-01-28T00:02:39.740Z,8.20
2019-01-28T00:03:45.264Z,7.30
2019-01-28T00:05:43.672Z,9.30
2019-01-28T00:06:49.186Z,9.20
2019-01-28T00:08:47.592Z,9.30
2019-01-28T00:09:53.101Z,7.80
2019-01-28T00:11:51.495Z,7.30
2019-01-28T00:12:57.028Z,11.90
2019-01-28T00:14:55.434Z,10.50
2019-01-28T00:16:00.944Z,6.30
2019-01-28T00:17:59.345Z,8.90
2019-01-28T00:19:04.863Z,6.20
2019-01-28T00:21:03.268Z,11.20
2019-01-28T00:22:08.787Z,12.10
2019-01-28T00:24:07.201Z,8.50
2019-01-28T00:25:12.701Z,10.50
2019-01-28T00:27:11.091Z,14.10
2019-01-28T00:28:16.619Z,9.40
2019-01-28T00:30:15.875Z,7.90
2019-01-28T00:31:21.393Z,7.20
2019-01-28T00:33:19.781Z,14.00
2019-01-28T00:34:25.313Z,16.80
2019-01-28T00:36:23.727Z,10.60
2019-01-28T00:37:29.233Z,9.30
2019-01-28T00:39:27.632Z,11.20
2019-01-28T00:40:33.146Z,13.40
2019-01-28T00:42:31.538Z,8.30
2019-01-28T00:43:37.071Z,14.50
2019-01-28T00:45:35.476Z,13.40
2019-01-28T00:46:40.987Z,13.40
2019-01-28T00:48:39.444Z,11.70
2019-01-28T00:49:44.911Z,18.60
2019-01-28T00:51:43.319Z,8.90
2019-01-28T00:52:48.832Z,12.00
2019-01-28T00:54:47.236Z,12.10
2019-01-28T00:55:52.751Z,12.60
2019-01-28T00:57:51.149Z,15.00
2019-01-28T00:58:56.672Z,16.30
2019-01-28T01:00:55.946Z,17.30
2019-01-28T01:02:01.466Z,11.60
2019-01-28T01:03:59.868Z,12.00
2019-01-28T01:05:05.380Z,11.10
2019-01-28T01:07:03.773Z,16.00
2019-01-28T01:08:09.300Z,9.70
2019-01-28T01:10:07.703Z,16.70
2019-01-28T01:11:13.224Z,14.90
2019-01-28T01:13:11.610Z,15.80
2019-01-28T01:14:17.136Z,11.70
2019-01-28T01:16:15.554Z,10.70
2019-01-28T01:17:21.064Z,12.30
2019-01-28T01:19:19.468Z,11.70
2019-01-28T01:20:24.978Z,15.00
2019-01-28T01:22:23.372Z,9.30
2019-01-28T01:23:28.898Z,11.60
2019-01-28T01:25:27.301Z,13.10
2019-01-28T01:26:32.819Z,11.70
2019-01-28T01:28:31.230Z,19.40
2019-01-28T01:29:36.751Z,10.30
2019-01-28T01:31:35.156Z,9.20
2019-01-28T01:32:40.676Z,9.40
2019-01-28T01:34:39.073Z,15.00
2019-01-28T01:35:44.593Z,16.50
2019-01-28T01:37:42.990Z,11.50
2019-01-28T01:38:48.522Z,15.60
2019-01-28T01:40:46.923Z,16.50
2019-01-28T01:41:52.432Z,14.50
2019-01-28T01:43:51.412Z,13.10
2019-01-28T01:44:56.353Z,13.80
2019-01-28T01:46:54.759Z,12.80
2019-01-28T01:48:00.271Z,10.30
2019-01-28T01:49:58.681Z,9.20
2019-01-28T01:51:04.192Z,9.00
2019-01-28T01:53:03.436Z,9.70
2019-01-28T01:54:08.964Z,8.90
2019-01-28T01:56:07.367Z,9.30
2019-01-28T01:57:12.876Z,10.10
2019-01-28T01:59:11.284Z,10.50
2019-01-28T02:00:16.811Z,9.10
2019-01-28T02:02:15.211Z,12.80
2019-01-28T02:03:20.725Z,8.10
2019-01-28T02:05:19.130Z,13.30
2019-01-28T02:06:24.643Z,9.60
2019-01-28T02:08:23.032Z,9.00
2019-01-28T02:09:28.564Z,7.10
2019-01-28T02:11:26.966Z,6.50
2019-01-28T02:12:32.482Z,5.90
2019-01-28T02:14:30.893Z,10.30
2019-01-28T02:15:36.394Z,11.80
2019-01-28T02:17:34.787Z,12.00
2019-01-28T02:18:40.320Z,8.90
2019-01-28T02:20:38.732Z,13.20
2019-01-28T02:21:44.234Z,10.40
2019-01-28T02:23:42.620Z,9.80
2019-01-28T02:24:48.154Z,17.40
2019-01-28T02:26:47.400Z,9.10
2019-01-28T02:27:52.913Z,13.50
2019-01-28T02:29:51.305Z,8.50
2019-01-28T02:30:56.831Z,8.60
2019-01-28T02:32:55.248Z,8.60
2019-01-28T02:34:00.758Z,8.70
2019-01-28T02:35:59.735Z,8.50
2019-01-28T02:37:04.675Z,10.20
2019-01-28T02:39:03.099Z,13.40
2019-01-28T02:40:08.586Z,11.00
2019-01-28T02:42:06.978Z,14.00
2019-01-28T02:43:12.507Z,10.90
2019-01-28T02:45:10.938Z,10.00
2019-01-28T02:46:16.437Z,6.70
2019-01-28T02:48:14.820Z,10.40
2019-01-28T02:49:20.347Z,11.20
2019-01-28T02:51:18.778Z,11.90
2019-01-28T02:52:24.273Z,12.80
2019-01-28T02:54:22.660Z,7.60
2019-01-28T02:55:28.195Z,10.80
2019-01-28T02:57:26.614Z,13.60
2019-01-28T02:58:32.113Z,9.70
2019-01-28T03:00:30.506Z,13.60
2019-01-28T03:01:36.032Z,9.50
2019-01-28T03:03:34.437Z,8.00
2019-01-28T03:04:39.952Z,14.00
2019-01-28T03:06:38.337Z,10.50
2019-01-28T03:07:43.864Z,9.70
2019-01-28T03:09:42.295Z,9.50
2019-01-28T03:10:47.781Z,7.90
2019-01-28T03:12:46.173Z,9.00
2019-01-28T03:13:51.746Z,9.40
2019-01-28T03:15:50.119Z,8.60
2019-01-28T03:16:55.619Z,7.80
2019-01-28T03:18:54.015Z,12.40
2019-01-28T03:19:59.538Z,13.30
2019-01-28T03:21:57.977Z,9.70
2019-01-28T03:23:03.460Z,10.00
2019-01-28T03:25:01.848Z,17.80
2019-01-28T03:26:07.378Z,15.10
2019-01-28T03:28:05.793Z,12.80
2019-01-28T03:29:11.298Z,12.90
2019-01-28T03:31:09.701Z,8.90
2019-01-28T03:32:15.229Z,9.00
2019-01-28T03:34:13.635Z,12.70
2019-01-28T03:35:19.145Z,11.10
2019-01-28T03:37:17.525Z,10.80
2019-01-28T03:38:23.060Z,12.90
2019-01-28T03:40:22.337Z,10.90
2019-01-28T03:41:27.823Z,11.70
2019-01-28T03:43:26.213Z,15.70
2019-01-28T03:44:31.738Z,9.80
2019-01-28T03:46:30.154Z,10.00
2019-01-28T03:47:35.666Z,9.10
2019-01-28T03:49:34.057Z,10.20
2019-01-28T03:50:39.594Z,9.00
2019-01-28T03:52:37.995Z,11.40
2019-01-28T03:53:43.519Z,12.50
2019-01-28T03:55:42.493Z,10.20
2019-01-28T03:56:47.467Z,10.90
2019-01-28T03:58:46.683Z,8.90
2019-01-28T03:59:52.199Z,13.50
2019-01-28T04:01:50.645Z,27.60
2019-01-28T04:02:56.120Z,26.10
2019-01-28T04:04:54.504Z,17.50
2019-01-28T04:06:00.035Z,17.10
2019-01-28T04:07:58.450Z,15.90
2019-01-28T04:09:03.952Z,13.80
2019-01-28T04:11:02.338Z,15.20
2019-01-28T04:12:07.870Z,27.70
2019-01-28T04:14:06.283Z,24.60
2019-01-28T04:15:11.802Z,17.30
2019-01-28T04:17:10.174Z,10.70
2019-01-28T04:18:15.697Z,12.70
2019-01-28T04:20:14.124Z,16.30
2019-01-28T04:21:19.617Z,10.80
2019-01-28T04:23:18.009Z,13.30
2019-01-28T04:24:23.533Z,11.20
2019-01-28T04:26:21.946Z,8.40
2019-01-28T04:27:27.454Z,10.30
2019-01-28T04:29:25.845Z,8.60
2019-01-28T04:30:31.373Z,14.30
2019-01-28T04:32:29.795Z,11.00
2019-01-28T04:33:35.286Z,13.00
2019-01-28T04:35:33.689Z,9.30
2019-01-28T04:36:39.228Z,10.90
2019-01-28T04:38:38.478Z,11.40
2019-01-28T04:39:43.977Z,11.00
2019-01-28T04:41:42.374Z,10.90
2019-01-28T04:42:47.896Z,12.80
2019-01-28T04:44:46.297Z,10.30
2019-01-28T04:45:51.813Z,15.70
2019-01-28T04:47:50.805Z,10.60
2019-01-28T04:48:55.731Z,10.30
2019-01-28T04:50:54.137Z,16.90
2019-01-28T04:51:59.645Z,13.80
2019-01-28T04:53:58.045Z,9.80
2019-01-28T04:55:03.564Z,11.90
2019-01-28T04:57:01.985Z,15.70
2019-01-28T04:58:07.482Z,11.20
2019-01-28T05:00:05.872Z,8.70
2019-01-28T05:01:11.401Z,7.10
2019-01-28T05:03:09.832Z,12.40
2019-01-28T05:04:15.320Z,11.80
2019-01-28T05:06:13.719Z,13.20
2019-01-28T05:07:19.248Z,10.50
2019-01-28T05:09:17.643Z,12.80
2019-01-28T05:10:23.156Z,11.10
2019-01-28T05:12:21.549Z,15.50
2019-01-28T05:13:27.078Z,12.10
2019-01-28T05:15:26.327Z,11.90
2019-01-28T05:16:31.846Z,8.20
2019-01-28T05:18:30.237Z,14.50
2019-01-28T05:19:35.763Z,12.70
2019-01-28T05:21:34.171Z,14.10
2019-01-28T05:22:39.683Z,13.60
2019-01-28T05:24:38.071Z,13.00
2019-01-28T05:25:43.597Z,17.70
2019-01-28T05:27:42.000Z,11.40
2019-01-28T05:28:47.515Z,13.30
2019-01-28T05:30:45.909Z,15.10
2019-01-28T05:31:51.438Z,10.80
2019-01-28T05:33:49.854Z,15.00
2019-01-28T05:34:55.365Z,12.00
2019-01-28T05:36:53.763Z,13.80
2019-01-28T05:39:30.863Z,14.20
2019-01-28T05:40:36.375Z,10.30
2019-01-28T05:42:35.614Z,14.40
2019-01-28T05:43:41.147Z,12.40
2019-01-28T05:45:39.539Z,14.70
2019-01-28T05:46:45.058Z,15.20
2019-01-28T05:48:43.455Z,15.70
2019-01-28T05:49:48.982Z,15.20
2019-01-28T05:51:47.384Z,11.90
2019-01-28T05:52:52.905Z,12.60
2019-01-28T05:54:51.298Z,13.10
2019-01-28T05:55:56.823Z,11.70
2019-01-28T05:57:55.232Z,12.70
2019-01-28T05:59:00.745Z,10.90
2019-01-28T06:00:59.132Z,11.70
2019-01-28T06:02:04.663Z,9.00
2019-01-28T06:04:03.061Z,13.10
2019-01-28T06:05:08.577Z,16.30
2019-01-28T06:07:06.964Z,14.10
2019-01-28T06:08:12.491Z,13.90
2019-01-28T06:10:10.905Z,9.40
2019-01-28T06:11:16.410Z,15.30
2019-01-28T06:13:15.647Z,10.90
2019-01-28T06:14:21.175Z,11.20
2019-01-28T06:16:19.594Z,13.30
2019-01-28T06:17:25.100Z,12.90
2019-01-28T06:19:23.490Z,18.30
2019-01-28T06:20:29.022Z,21.70
2019-01-28T06:22:27.421Z,13.60
2019-01-28T06:23:32.937Z,13.20
2019-01-28T06:25:31.331Z,14.30
2019-01-28T06:26:36.855Z,16.10
2019-01-28T06:28:35.328Z,12.70
2019-01-28T06:29:40.769Z,15.20
2019-01-28T06:31:39.164Z,15.10
2019-01-28T06:32:44.694Z,11.80
2019-01-28T06:34:43.103Z,11.90
2019-01-28T06:35:48.607Z,13.50
2019-01-28T06:37:47.053Z,12.40
2019-01-28T06:38:52.560Z,12.20
2019-01-28T06:40:50.969Z,14.10
2019-01-28T06:41:56.472Z,18.80
2019-01-28T06:43:54.860Z,9.70
2019-01-28T06:45:02.208Z,15.70
2019-01-28T06:46:58.789Z,11.30
2019-01-28T06:48:04.304Z,11.10
2019-01-28T06:50:02.697Z,13.60
2019-01-28T06:51:08.225Z,18.10
2019-01-28T06:53:06.634Z,9.70
2019-01-28T06:54:12.147Z,16.10
2019-01-28T06:56:10.539Z,13.20
2019-01-28T06:57:16.072Z,18.70
2019-01-28T06:59:14.472Z,11.80
2019-01-28T07:00:19.995Z,17.10
2019-01-28T07:02:18.381Z,12.60
2019-01-28T07:03:23.911Z,11.00
2019-01-28T07:05:22.318Z,17.50
2019-01-28T07:06:27.823Z,11.80
2019-01-28T07:08:26.217Z,10.00
2019-01-28T07:09:31.747Z,9.90
2019-01-28T07:11:30.154Z,14.40
2019-01-28T07:12:35.663Z,13.20
2019-01-28T07:14:34.907Z,14.20
2019-01-28T07:15:40.434Z,12.00
2019-01-28T07:17:38.869Z,14.00
2019-01-28T07:18:44.903Z,13.00
2019-01-28T07:20:42.760Z,10.00
2019-01-28T07:21:48.280Z,13.40
2019-01-28T07:23:46.797Z,13.30
2019-01-28T07:24:52.202Z,12.50
2019-01-28T07:26:50.593Z,15.40
2019-01-28T07:27:56.120Z,12.90
2019-01-28T07:29:54.540Z,9.30
2019-01-28T07:31:00.039Z,12.20
2019-01-28T07:32:58.436Z,10.40
2019-01-28T07:34:03.967Z,8.60
2019-01-28T07:36:02.393Z,11.30
2019-01-28T07:37:07.883Z,15.30
2019-01-28T07:39:06.271Z,10.40
2019-01-28T07:40:11.804Z,12.40
2019-01-28T07:42:10.205Z,11.90
2019-01-28T07:43:15.727Z,9.30
2019-01-28T07:45:14.121Z,16.00
2019-01-28T07:46:19.644Z,10.90
2019-01-28T07:48:18.069Z,15.20
2019-01-28T07:49:23.562Z,11.80
2019-01-28T07:51:21.954Z,11.60
2019-01-28T07:52:27.483Z,9.80
2019-01-28T07:54:25.888Z,14.20
2019-01-28T07:55:31.403Z,13.50
2019-01-28T07:57:29.797Z,9.50
2019-01-28T07:58:35.321Z,14.30
2019-01-28T08:00:33.733Z,16.40
2019-01-28T08:01:39.250Z,13.70
2019-01-28T08:03:37.638Z,9.30
2019-01-28T08:04:43.173Z,21.50
2019-01-28T08:06:41.576Z,17.30
2019-01-28T08:07:47.092Z,22.90
2019-01-28T08:09:45.515Z,11.20
2019-01-28T08:10:51.012Z,11.00
2019-01-28T08:12:49.399Z,16.50
2019-01-28T08:13:54.931Z,10.60
2019-01-28T08:15:53.898Z,11.80
2019-01-28T08:16:58.860Z,14.40
2019-01-28T08:18:57.249Z,11.90
2019-01-28T08:20:02.772Z,13.80
2019-01-28T08:22:01.184Z,12.50
2019-01-28T08:23:06.696Z,10.90
2019-01-28T08:25:05.089Z,14.80
2019-01-28T08:26:10.622Z,15.70
2019-01-28T08:28:09.022Z,10.20
2019-01-28T08:29:14.536Z,12.50
2019-01-28T08:31:12.948Z,10.90
2019-01-28T08:32:18.458Z,12.90
2019-01-28T08:34:16.848Z,15.00
2019-01-28T08:35:22.378Z,11.00
2019-01-28T08:37:20.793Z,11.50
2019-01-28T08:38:26.299Z,14.30
2019-01-28T08:40:24.693Z,11.20
2019-01-28T08:41:30.215Z,11.80
2019-01-28T08:43:28.644Z,8.50
2019-01-28T08:44:34.139Z,9.70
2019-01-28T08:46:33.376Z,18.30
2019-01-28T08:47:38.909Z,13.60
2019-01-28T08:49:37.318Z,10.90
2019-01-28T08:50:42.826Z,16.90
2019-01-28T08:52:41.225Z,11.90
2019-01-28T08:53:46.750Z,11.00
2019-01-28T08:55:45.154Z,9.10
2019-01-28T08:56:50.666Z,11.40
2019-01-28T08:58:49.060Z,11.30
2019-01-28T08:59:54.594Z,10.90
2019-01-28T09:01:53.006Z,10.30
2019-01-28T09:02:58.516Z,12.40
2019-01-28T09:04:56.900Z,11.40
2019-01-28T09:06:02.435Z,10.60
2019-01-28T09:08:00.843Z,12.80
2019-01-28T09:09:06.352Z,14.30
2019-01-28T09:11:04.774Z,12.70
2019-01-28T09:12:10.271Z,15.30
2019-01-28T09:14:09.515Z,12.80
2019-01-28T09:15:15.038Z,9.50
2019-01-28T09:17:13.460Z,11.70
2019-01-28T09:18:26.066Z,12.50
2019-01-28T09:20:17.348Z,11.70
2019-01-28T09:21:22.875Z,12.20
2019-01-28T09:23:21.295Z,12.00
2019-01-28T09:24:26.796Z,11.20
2019-01-28T09:27:56.749Z,24.30
2019-01-28T09:29:02.279Z,37.90
2019-01-28T09:31:00.685Z,11.20
2019-01-28T09:32:06.209Z,8.80
2019-01-28T09:34:05.454Z,9.50
2019-01-28T09:35:10.973Z,11.80
2019-01-28T09:37:09.360Z,17.20
2019-01-28T09:38:14.892Z,12.40
2019-01-28T09:40:13.300Z,15.00
2019-01-28T09:41:18.810Z,12.90
2019-01-28T09:43:17.204Z,11.50
2019-01-28T09:44:22.737Z,13.40
2019-01-28T09:46:21.144Z,19.40
2019-01-28T09:47:26.651Z,13.00
2019-01-28T09:49:25.060Z,10.20
2019-01-28T09:50:30.581Z,10.80
2019-01-28T09:52:28.975Z,16.80
2019-01-28T09:53:34.497Z,13.10
2019-01-28T09:55:32.922Z,11.20
2019-01-28T09:56:38.419Z,10.10
2019-01-28T09:58:36.880Z,12.10
2019-01-28T09:59:42.341Z,11.70
2019-01-28T10:01:40.750Z,9.90
2019-01-28T10:02:46.262Z,8.30
2019-01-28T10:04:44.978Z,9.30
2019-01-28T10:05:50.507Z,8.50
2019-01-28T10:07:48.878Z,15.10
2019-01-28T10:08:54.409Z,10.60
2019-01-28T10:10:52.823Z,8.80
2019-01-28T10:11:58.330Z,10.10
2019-01-28T10:13:56.739Z,10.80
2019-01-28T10:15:02.253Z,10.70
2019-01-28T10:17:00.655Z,15.00
2019-01-28T10:18:06.173Z,12.60
2019-01-28T10:20:04.594Z,12.10
2019-01-28T10:21:10.098Z,13.80
2019-01-28T10:23:08.495Z,13.60
2019-01-28T10:24:14.057Z,17.20
2019-01-28T10:26:12.440Z,15.10
2019-01-28T10:27:17.945Z,13.60
2019-01-28T10:29:16.355Z,13.40
2019-01-28T10:30:21.874Z,18.00
2019-01-28T10:32:20.267Z,11.00
2019-01-28T10:33:25.790Z,10.70
2019-01-28T10:35:24.196Z,13.40
2019-01-28T10:36:34.156Z,16.30
2019-01-28T10:38:28.107Z,9.80
2019-01-28T10:39:33.634Z,10.40
2019-01-28T10:41:32.043Z,11.00
2019-01-28T10:42:37.557Z,10.80
2019-01-28T10:44:35.957Z,13.70
2019-01-28T10:45:41.483Z,12.30
2019-01-28T10:47:39.935Z,10.40
2019-01-28T10:48:49.782Z,12.30
2019-01-28T10:50:43.814Z,12.00
2019-01-28T10:51:49.331Z,11.40
2019-01-28T10:53:47.717Z,10.30
2019-01-28T10:54:53.249Z,9.20
2019-01-28T10:56:51.653Z,11.00
2019-01-28T10:57:57.172Z,8.70
2019-01-28T10:59:55.571Z,9.40
2019-01-28T11:01:01.086Z,10.00
2019-01-28T11:02:59.486Z,9.00
2019-01-28T11:04:05.009Z,10.90
2019-01-28T11:06:03.418Z,11.00
2019-01-28T11:07:08.938Z,10.20
2019-01-28T11:09:07.323Z,9.10
2019-01-28T11:10:12.846Z,8.20
2019-01-28T11:12:11.303Z,8.90
2019-01-28T11:13:16.776Z,8.40
2019-01-28T11:15:15.312Z,11.20
2019-01-28T11:16:20.698Z,8.30
2019-01-28T11:18:19.206Z,11.00
2019-01-28T11:19:24.623Z,10.10
2019-01-28T11:21:23.685Z,12.30
2019-01-28T11:22:28.566Z,13.40
2019-01-28T11:24:27.029Z,9.40
2019-01-28T11:25:32.482Z,10.40
2019-01-28T11:27:31.813Z,13.90
2019-01-28T11:28:37.341Z,14.60
2019-01-28T11:30:35.646Z,17.60
2019-01-28T11:31:41.165Z,19.70
2019-01-28T11:33:39.887Z,13.90
2019-01-28T11:34:45.092Z,10.30
2019-01-28T11:36:43.636Z,9.80
2019-01-28T11:37:49.163Z,9.10
2019-01-28T11:39:47.506Z,10.90
2019-01-28T11:40:52.941Z,10.90
2019-01-28T11:42:51.364Z,11.10
2019-01-28T11:43:57.024Z,12.40
2019-01-28T11:45:55.452Z,8.90
2019-01-28T11:47:00.844Z,10.30
2019-01-28T11:49:05.779Z,8.70
2019-01-28T11:50:04.861Z,8.10
2019-01-28T11:52:03.121Z,10.30
2019-01-28T11:53:08.637Z,8.40
2019-01-28T11:55:07.042Z,8.20
2019-01-28T11:56:12.563Z,10.00
2019-01-28T11:58:10.953Z,13.90
2019-01-28T11:59:16.483Z,9.20
2019-01-28T12:01:14.899Z,9.90
2019-01-28T12:02:20.413Z,10.10
2019-01-28T12:04:19.156Z,14.00
2019-01-28T12:05:24.327Z,13.50
2019-01-28T12:07:22.733Z,7.90
2019-01-28T12:08:28.260Z,7.80
2019-01-28T12:10:27.511Z,8.10
2019-01-28T12:11:33.026Z,7.50
2019-01-28T12:13:31.511Z,7.90
2019-01-28T12:14:36.947Z,8.70
2019-01-28T12:16:35.346Z,8.20
2019-01-28T12:17:40.863Z,13.50
2019-01-28T12:19:39.253Z,9.10
2019-01-28T12:20:53.047Z,8.10
2019-01-28T12:22:43.196Z,9.20
2019-01-28T12:23:48.714Z,7.30
2019-01-28T12:25:48.557Z,8.00
2019-01-28T12:26:52.635Z,8.60
2019-01-28T12:28:51.029Z,8.60
2019-01-28T12:29:56.562Z,6.30
2019-01-28T12:31:54.965Z,11.90
2019-01-28T12:33:00.491Z,8.10
2019-01-28T12:34:58.877Z,9.00
2019-01-28T12:36:04.403Z,10.60
2019-01-28T12:38:02.813Z,10.10
2019-01-28T12:39:08.327Z,8.30
2019-01-28T12:41:06.744Z,10.90
2019-01-28T12:42:12.251Z,6.90
2019-01-28T12:44:10.655Z,10.90
2019-01-28T12:45:16.186Z,7.60
2019-01-28T12:47:14.600Z,8.40
2019-01-28T12:48:20.109Z,10.60
2019-01-28T12:50:18.508Z,9.80
2019-01-28T12:51:24.105Z,7.80
2019-01-28T12:53:22.479Z,9.30
2019-01-28T12:54:27.953Z,9.80
2019-01-28T12:56:27.211Z,8.90
2019-01-28T12:57:32.729Z,8.80
2019-01-28T12:59:31.123Z,8.70
2019-01-28T13:00:36.648Z,9.50
2019-01-28T13:02:35.075Z,9.30
2019-01-28T13:03:40.576Z,8.50
2019-01-28T13:05:38.963Z,10.30
2019-01-28T13:06:44.493Z,8.40
2019-01-28T13:08:42.908Z,10.40
2019-01-28T13:09:48.419Z,14.50
2019-01-28T13:11:46.830Z,8.60
2019-01-28T13:12:52.338Z,8.30
2019-01-28T13:14:51.592Z,7.40
2019-01-28T13:15:57.124Z,7.10
2019-01-28T13:17:55.543Z,7.60
2019-01-28T13:19:01.092Z,7.80
2019-01-28T13:20:59.456Z,9.50
2019-01-28T13:22:04.968Z,10.20
2019-01-28T13:24:03.360Z,11.70
2019-01-28T13:25:12.608Z,7.50
2019-01-28T13:27:07.296Z,8.40
2019-01-28T13:28:12.816Z,9.10
2019-01-28T13:30:11.207Z,9.60
2019-01-28T13:31:16.729Z,9.30
2019-01-28T13:33:15.991Z,8.70
2019-01-28T13:34:21.505Z,8.20
2019-01-28T13:36:19.907Z,8.40
2019-01-28T13:37:25.420Z,11.30
2019-01-28T13:39:24.151Z,8.50
2019-01-28T13:40:29.344Z,10.50
2019-01-28T13:42:27.753Z,9.20
2019-01-28T13:43:33.266Z,10.40
2019-01-28T13:45:31.658Z,12.30
2019-01-28T13:46:37.190Z,9.80
2019-01-28T13:48:35.594Z,11.40
2019-01-28T13:49:41.112Z,10.50
2019-01-28T13:51:39.526Z,10.60
2019-01-28T13:52:45.031Z,9.30
2019-01-28T13:54:43.422Z,11.50
2019-01-28T13:55:48.954Z,9.50
2019-01-28T13:57:48.204Z,10.40
2019-01-28T13:58:53.725Z,8.70
2019-01-28T14:00:52.116Z,10.50
2019-01-28T14:01:57.643Z,10.20
2019-01-28T14:03:56.045Z,8.60
2019-01-28T14:05:01.561Z,11.30
2019-01-28T14:06:59.987Z,12.20
2019-01-28T14:08:05.484Z,12.00
2019-01-28T14:10:03.880Z,10.10
2019-01-28T14:11:09.402Z,8.10
2019-01-28T14:13:07.817Z,13.10
2019-01-28T14:14:13.324Z,7.60
2019-01-28T14:16:11.717Z,7.10
2019-01-28T14:17:17.248Z,7.10
2019-01-28T14:19:15.655Z,10.90
2019-01-28T14:20:21.166Z,10.50
2019-01-28T14:22:19.578Z,12.10
2019-01-28T14:23:25.091Z,9.90
2019-01-28T14:25:23.482Z,10.50
2019-01-28T14:26:29.018Z,13.20
2019-01-28T14:28:27.418Z,11.80
2019-01-28T14:29:32.930Z,19.70
2019-01-28T14:31:31.345Z,13.60
2019-01-28T14:32:36.852Z,13.60
2019-01-28T14:34:35.247Z,9.00
2019-01-28T14:35:40.774Z,10.50
2019-01-28T14:37:39.179Z,10.30
2019-01-28T14:38:44.694Z,9.60
2019-01-28T14:40:43.087Z,10.10
2019-01-28T14:41:48.626Z,8.40
2019-01-28T14:43:47.027Z,16.20
2019-01-28T14:44:52.537Z,10.30
2019-01-28T14:46:50.929Z,8.40
2019-01-28T14:47:56.458Z,9.60
2019-01-28T14:49:54.884Z,10.50
2019-01-28T14:51:00.382Z,9.70
2019-01-28T14:52:58.771Z,10.80
2019-01-28T14:54:04.301Z,10.10
2019-01-28T14:56:02.704Z,11.30
2019-01-28T14:57:08.224Z,13.60
2019-01-28T14:59:06.620Z,18.50
2019-01-28T15:00:12.149Z,17.00
2019-01-28T15:02:10.577Z,33.30
2019-01-28T15:03:16.072Z,30.60
2019-01-28T15:05:14.462Z,28.50
2019-01-28T15:06:19.998Z,26.70
2019-01-28T15:08:18.401Z,30.20
2019-01-28T15:09:23.919Z,21.10
2019-01-28T15:11:22.306Z,21.20
2019-01-28T15:12:27.840Z,19.20
2019-01-28T15:14:26.245Z,14.50
2019-01-28T15:15:31.759Z,13.50
2019-01-28T15:17:30.186Z,19.10
2019-01-28T15:18:35.679Z,16.40
2019-01-28T15:20:34.070Z,19.20
2019-01-28T15:21:39.616Z,16.30
2019-01-28T15:23:38.011Z,18.70
2019-01-28T15:24:43.526Z,28.00
2019-01-28T15:26:41.959Z,19.40
2019-01-28T15:27:47.451Z,24.90
2019-01-28T15:29:45.861Z,26.70
2019-01-28T15:30:51.410Z,41.90
2019-01-28T15:32:49.817Z,39.60
2019-01-28T15:33:55.296Z,47.80
2019-01-28T15:35:53.692Z,66.70
2019-01-28T15:36:59.228Z,78.40
2019-01-28T15:38:57.636Z,73.50
2019-01-28T15:40:03.147Z,84.90
2019-01-28T15:42:01.544Z,66.70
2019-01-28T15:43:07.084Z,51.90
2019-01-28T15:45:11.223Z,58.00
2019-01-28T15:46:10.998Z,34.80
2019-01-28T15:48:09.411Z,28.70
2019-01-28T15:49:14.919Z,30.20
2019-01-28T15:51:13.304Z,22.90
2019-01-28T15:52:18.832Z,22.70
2019-01-28T15:54:17.476Z,17.20
2019-01-28T15:55:22.992Z,12.30
2019-01-28T15:57:21.387Z,11.70
2019-01-28T15:58:26.916Z,10.40
2019-01-28T16:00:25.322Z,10.20
2019-01-28T16:01:30.842Z,11.00
2019-01-28T16:03:29.240Z,11.30
2019-01-28T16:04:34.761Z,9.90
2019-01-28T16:06:33.149Z,12.00
2019-01-28T16:07:39.222Z,13.10
2019-01-28T16:09:37.099Z,14.80
2019-01-28T16:10:42.609Z,11.80
2019-01-28T16:12:41.026Z,8.50
2019-01-28T16:13:46.558Z,8.40
2019-01-28T16:15:44.960Z,12.80
2019-01-28T16:16:50.483Z,7.60
2019-01-28T16:18:48.867Z,9.90
2019-01-28T16:19:54.401Z,8.30
2019-01-28T16:21:52.806Z,8.80
2019-01-28T16:22:58.314Z,10.80
2019-01-28T16:24:56.707Z,13.60
2019-01-28T16:26:02.241Z,14.50
2019-01-28T16:28:00.650Z,16.00
2019-01-28T16:29:06.154Z,15.70
2019-01-28T16:31:04.554Z,17.60
2019-01-28T16:32:10.077Z,15.70
2019-01-28T16:34:08.480Z,14.70
2019-01-28T16:35:13.994Z,11.00
2019-01-28T16:37:13.238Z,14.20
2019-01-28T16:38:18.760Z,12.80
2019-01-28T16:40:17.186Z,13.40
2019-01-28T16:41:22.684Z,12.90
2019-01-28T16:43:21.071Z,13.90
2019-01-28T16:44:26.603Z,15.90
2019-01-28T16:46:25.006Z,16.60
2019-01-28T16:47:30.522Z,17.60
2019-01-28T16:49:28.910Z,15.50
2019-01-28T16:50:34.440Z,15.10
2019-01-28T16:52:32.852Z,24.80
2019-01-28T16:53:38.368Z,23.50
2019-01-28T16:55:36.757Z,32.80
2019-01-28T16:56:42.286Z,27.60
2019-01-28T16:58:40.689Z,17.60
2019-01-28T16:59:46.203Z,15.70
2019-01-28T17:01:44.600Z,21.90
2019-01-28T17:02:50.125Z,16.60
2019-01-28T17:04:49.372Z,22.00
2019-01-28T17:05:54.893Z,23.70
2019-01-28T17:07:53.278Z,29.10
2019-01-28T17:08:58.817Z,32.30
2019-01-28T17:10:57.212Z,27.10
2019-01-28T17:12:02.725Z,27.70
2019-01-28T17:14:01.123Z,33.80
2019-01-28T17:15:06.652Z,34.80
2019-01-28T17:17:05.061Z,31.30
2019-01-28T17:18:10.570Z,34.10
2019-01-28T17:20:09.001Z,30.80
2019-01-28T17:21:14.487Z,29.90
2019-01-28T17:23:12.877Z,21.10
2019-01-28T17:24:18.415Z,23.20
2019-01-28T17:26:16.809Z,16.40
2019-01-28T17:27:22.327Z,17.30
2019-01-28T17:29:20.721Z,18.10
2019-01-28T17:30:26.248Z,15.90
2019-01-28T17:32:25.507Z,20.20
2019-01-28T17:33:31.009Z,19.00
2019-01-28T17:35:29.400Z,26.50
2019-01-28T17:36:34.929Z,22.70
2019-01-28T17:38:33.331Z,30.20
2019-01-28T17:39:38.844Z,29.80
2019-01-28T17:41:37.240Z,33.90
2019-01-28T17:42:42.770Z,25.60
2019-01-28T17:44:41.263Z,31.80
2019-01-28T17:45:46.688Z,26.40
2019-01-28T17:47:45.078Z,25.40
2019-01-28T17:48:50.605Z,26.30
2019-01-28T17:50:49.007Z,28.90
2019-01-28T17:51:54.524Z,28.30
2019-01-28T17:53:52.914Z,26.50
2019-01-28T17:54:58.446Z,27.70
2019-01-28T17:56:56.845Z,30.00
2019-01-28T17:58:02.361Z,28.00
2019-01-28T18:00:00.776Z,28.50
2019-01-28T18:01:06.285Z,28.40
2019-01-28T18:03:05.524Z,24.10
2019-01-28T18:04:11.049Z,26.00
2019-01-28T18:06:09.458Z,30.20
2019-01-28T18:07:14.966Z,25.20
2019-01-28T18:09:13.362Z,27.10
2019-01-28T18:10:18.890Z,28.60
2019-01-28T18:12:17.295Z,35.60
2019-01-28T18:13:22.810Z,34.50
2019-01-28T18:15:21.211Z,31.20
2019-01-28T18:16:26.724Z,30.60
2019-01-28T18:18:25.124Z,27.60
2019-01-28T18:19:30.643Z,30.30
2019-01-28T18:21:29.049Z,31.00
2019-01-28T18:22:34.568Z,30.00
2019-01-28T18:24:32.951Z,31.10
2019-01-28T18:25:38.511Z,33.20
2019-01-28T18:27:36.883Z,38.60
2019-01-28T18:28:42.392Z,37.10
2019-01-28T18:30:40.824Z,35.50
2019-01-28T18:31:46.310Z,35.90
2019-01-28T18:33:44.699Z,39.30
2019-01-28T18:34:50.228Z,33.40
2019-01-28T18:36:48.631Z,32.00
2019-01-28T18:37:54.143Z,25.60
2019-01-28T18:39:53.381Z,28.80
2019-01-28T18:40:58.910Z,31.50
2019-01-28T18:42:57.313Z,25.50
2019-01-28T18:44:02.835Z,22.00
2019-01-28T18:46:01.214Z,25.20
2019-01-28T18:47:06.745Z,21.00
2019-01-28T18:49:05.150Z,22.10
2019-01-28T18:50:10.660Z,19.80
2019-01-28T18:52:09.054Z,17.30
2019-01-28T18:53:14.583Z,19.60
2019-01-28T18:55:12.987Z,15.80
2019-01-28T18:56:18.496Z,14.90
2019-01-28T18:58:16.883Z,14.40
2019-01-28T18:59:22.405Z,11.50
2019-01-28T19:01:20.806Z,13.40
2019-01-28T19:02:26.367Z,15.10
2019-01-28T19:04:24.730Z,14.10
2019-01-28T19:05:30.234Z,13.10
2019-01-28T19:07:28.622Z,9.40
2019-01-28T19:08:34.154Z,9.40
2019-01-28T19:10:32.559Z,20.50
2019-01-28T19:11:38.671Z,13.90
2019-01-28T19:13:36.450Z,13.30
2019-01-28T19:14:41.976Z,13.10
2019-01-28T19:16:40.378Z,11.40
2019-01-28T19:17:45.897Z,11.40
2019-01-28T19:19:44.308Z,9.80
2019-01-28T19:20:49.802Z,11.80
2019-01-28T19:22:48.203Z,9.10
2019-01-28T19:23:53.728Z,8.30
2019-01-28T19:25:52.112Z,11.00
2019-01-28T19:26:57.628Z,8.90
2019-01-28T19:28:56.019Z,9.10
2019-01-28T19:30:01.547Z,8.90
2019-01-28T19:31:59.948Z,8.80
2019-01-28T19:33:05.461Z,10.00
2019-01-28T19:35:03.847Z,11.00
2019-01-28T19:36:09.375Z,9.90
2019-01-28T19:38:07.783Z,8.00
2019-01-28T19:39:13.508Z,9.30
2019-01-28T19:41:12.537Z,9.50
2019-01-28T19:42:18.054Z,8.20
2019-01-28T19:44:16.444Z,9.10
2019-01-28T19:45:21.966Z,8.70
2019-01-28T19:47:20.399Z,9.20
2019-01-28T19:48:25.878Z,7.20
2019-01-28T19:50:24.268Z,6.20
2019-01-28T19:51:29.794Z,8.20
2019-01-28T19:53:28.200Z,7.50
2019-01-28T19:54:33.707Z,7.40
2019-01-28T19:56:32.119Z,4.60
2019-01-28T19:57:39.047Z,6.40